Time;durP1;ratioP1;P1;durP2;ratioP2;P2;SDS_P1;SDS_P2;PMS_P1;PMS_P2;Temp;Humidity;BMP_temperature;BMP_pressure;BME280_temperature;BME280_humidity;BME280_pressure;Samples;Min_cycle;Max_cycle;Signal;HPM_P1;HPM_P2
2024/03/21 06:03:27;;;;;;;;;;;;;;;3.41;100.00;100836.94;1815830;77;20091;-71
2024/03/21 06:05:53;;;;;;;;;;;;;;;3.47;100.00;100839.87;1821209;77;20093;-71
2024/03/21 06:08:19;;;;;;;;;;;;;;;3.52;100.00;100834.22;1803146;77;20137;-71
2024/03/21 06:10:46;;;;;;;;;;;;;;;3.59;100.00;100843.56;1815669;77;20131;-70
2024/03/21 06:13:13;;;;;;;;;;;;;;;3.61;100.00;100839.20;1817160;77;20502;-71
2024/03/21 06:15:41;;;;;;;;;;;;;;;3.64;100.00;100838.73;1810520;77;20086;-71
2024/03/21 06:18:07;;;;;;;;;;;;;;;3.72;100.00;100839.91;1817369;78;20128;-71
2024/03/21 06:20:34;;;;;;;;;;;;;;;3.81;100.00;100850.52;1798275;77;20423;-68
2024/03/21 06:23:00;;;;;;;;;;;;;;;3.89;100.00;100851.25;1815698;78;20387;-68
2024/03/21 06:25:26;;;;;;;;;;;;;;;3.95;100.00;100848.58;1811415;78;20149;-70
2024/03/21 06:27:52;;;;;;;;;;;;;;;3.99;100.00;100844.64;1809289;78;20093;-69
2024/03/21 06:37:40;;;;;;;;;;;;;;;4.15;100.00;100846.95;1812316;78;20106;-69
2024/03/21 06:40:08;;;;;;;;;;;;;;;4.17;100.00;100845.20;1809740;77;20095;-70
2024/03/21 07:23:26;;;;;;;;;;;;;;;6.88;100.00;100842.49;1748032;81;20202;-70
2024/03/21 07:25:52;;;;;;;;;;;;;;;7.18;100.00;100842.08;1750117;81;20139;-71
2024/03/21 07:33:30;;;;;;;;;;;;;;;7.93;100.00;100850.13;1751838;81;20405;-73
2024/03/21 07:35:57;;;;;;;;;;;;;;;8.21;100.00;100853.50;1753201;81;20176;-71
2024/03/21 07:38:23;;;;;;;;;;;;;;;8.39;100.00;100853.83;1751449;81;20157;-70
2024/03/21 07:40:58;;;;;;;;;;;;;;;8.50;100.00;100849.09;1750701;81;20296;-70
2024/03/21 07:43:25;;;;;;;;;;;;;;;8.59;100.00;100851.38;1751406;81;20143;-70
2024/03/21 07:45:51;;;;;;;;;;;;;;;8.64;100.00;100850.32;1746318;81;20140;-69
2024/03/21 07:48:17;;;;;;;;;;;;;;;8.76;100.00;100854.24;1761464;81;21139;-70
2024/03/21 07:50:43;;;;;;;;;;;;;;;8.93;100.00;100851.02;1763644;81;20161;-71
2024/03/21 07:53:10;;;;;;;;;;;;;;;9.06;100.00;100850.98;1748287;81;20440;-73
2024/03/21 07:55:36;;;;;;;;;;;;;;;9.17;100.00;100845.39;1761962;81;20168;-70
2024/03/21 07:58:05;;;;;;;;;;;;;;;9.33;100.00;100843.89;1759694;81;20190;-71
2024/03/21 08:00:31;;;;;;;;;;;;;;;9.43;100.00;100845.69;1750562;82;20433;-68
2024/03/21 08:02:58;;;;;;;;;;;;;;;9.41;100.00;100844.90;1751819;81;20144;-69
2024/03/21 08:05:24;;;;;;;;;;;;;;;9.34;100.00;100855.98;1756894;81;20121;-71
2024/03/21 08:07:50;;;;;;;;;;;;;;;9.23;100.00;100839.48;1732211;81;20135;-70
2024/03/21 08:10:17;;;;;;;;;;;;;;;9.23;100.00;100840.78;1731248;82;20111;-70
2024/03/21 08:12:43;;;;;;;;;;;;;;;9.22;100.00;100850.78;1742991;81;20141;-71
2024/03/21 08:15:10;;;;;;;;;;;;;;;9.17;100.00;100839.74;1738879;81;20092;-71
2024/03/21 08:17:36;;;;;;;;;;;;;;;9.21;100.00;100846.48;1746592;81;20476;-68
2024/03/21 08:20:04;;;;;;;;;;;;;;;9.25;100.00;100845.92;1736152;82;20115;-70
2024/03/21 08:22:31;;;;;;;;;;;;;;;9.34;100.00;100847.73;1731211;82;20111;-72
2024/03/21 08:24:58;;;;;;;;;;;;;;;9.36;100.00;100849.81;1733704;81;20096;-71
2024/03/21 08:27:24;;;;;;;;;;;;;;;9.38;100.00;100845.02;1745037;81;20117;-68
2024/03/21 08:29:50;;;;;;;;;;;;;;;9.46;100.00;100855.52;1746987;82;20411;-69
2024/03/21 08:32:24;;;;;;;;;;;;;;;9.55;100.00;100841.32;1745083;81;20119;-69
2024/03/21 08:34:48;;;;;;;;;;;;;;;9.60;100.00;100848.46;1730389;82;20099;-71
2024/03/21 08:37:14;;;;;;;;;;;;;;;9.64;100.00;100842.23;1733150;81;20155;-71
2024/03/21 08:39:41;;;;;;;;;;;;;;;9.64;100.00;100838.33;1735249;81;20167;-71
2024/03/21 08:42:08;;;;;;;;;;;;;;;9.61;100.00;100847.10;1744561;81;20129;-75
2024/03/21 08:44:34;;;;;;;;;;;;;;;9.51;100.00;100834.09;1734720;81;20175;-73
2024/03/21 08:47:00;;;;;;;;;;;;;;;9.45;100.00;100842.58;1732364;81;20462;-65
2024/03/21 08:49:26;;;;;;;;;;;;;;;9.44;100.00;100844.78;1737323;81;20099;-68
2024/03/21 08:51:53;;;;;;;;;;;;;;;9.47;100.00;100836.41;1744772;81;20160;-69
2024/03/21 08:54:20;;;;;;;;;;;;;;;9.52;100.00;100840.98;1737467;81;20132;-67
2024/03/21 08:56:48;;;;;;;;;;;;;;;9.46;100.00;100842.52;1735095;82;20174;-68
2024/03/21 09:06:45;;;;;;;;;;;;;;;9.48;100.00;100837.27;1740515;81;20182;-71
2024/03/21 09:09:11;;;;;;;;;;;;;;;9.47;100.00;100832.97;1733296;81;20107;-69
2024/03/21 09:11:37;;;;;;;;;;;;;;;9.45;100.00;100832.17;1747107;81;20135;-69
2024/03/21 09:14:05;;;;;;;;;;;;;;;9.40;100.00;100836.25;1748656;81;20141;-71
2024/03/21 09:16:31;;;;;;;;;;;;;;;9.27;100.00;100848.02;1740788;81;20144;-69
2024/03/21 09:18:57;;;;;;;;;;;;;;;9.09;100.00;100845.67;1758762;81;20156;-72
2024/03/21 09:21:23;;;;;;;;;;;;;;;9.00;100.00;100842.10;1741273;81;20497;-70
2024/03/21 09:23:50;;;;;;;;;;;;;;;8.94;100.00;100847.52;1747131;81;20097;-69
2024/03/21 09:26:17;;;;;;;;;;;;;;;8.88;100.00;100843.84;1742472;81;20140;-72
2024/03/21 09:28:44;;;;;;;;;;;;;;;8.82;100.00;100839.71;1747188;81;20109;-74
2024/03/21 09:36:18;;;;;;;;;;;;;;;8.75;100.00;100848.65;1738006;81;20163;-74
2024/03/21 09:38:46;;;;;;;;;;;;;;;8.71;100.00;100838.42;1742510;81;20116;-72
2024/03/21 09:41:12;;;;;;;;;;;;;;;8.74;100.00;100838.31;1751846;81;20152;-74
2024/03/21 09:43:39;;;;;;;;;;;;;;;8.79;100.00;100840.30;1726743;81;20136;-71
2024/03/21 09:46:06;;;;;;;;;;;;;;;8.85;100.00;100840.05;1754091;81;20150;-74
2024/03/21 09:48:32;;;;;;;;;;;;;;;8.90;100.00;100835.55;1742932;81;20127;-74
2024/03/21 12:12:22;;;;;;;;;;;;;;;10.00;70.31;100734.53;1767898;81;20127;-73
2024/03/21 12:14:49;;;;;;;;;;;;;;;10.00;70.14;100731.94;1752599;81;20111;-72
2024/03/21 12:17:17;;;;;;;;;;;;;;;9.99;70.13;100731.12;1762036;80;20163;-70
2024/03/21 13:05:20;;;;;;;;;;;;;;;10.52;73.35;100716.67;1766409;81;20143;-69
2024/03/21 13:07:47;;;;;;;;;;;;;;;10.50;73.37;100708.93;1749137;80;20104;-70
2024/03/21 13:10:14;;;;;;;;;;;;;;;10.47;74.20;100707.77;1755371;80;20162;-69
2024/03/21 13:12:40;;;;;;;;;;;;;;;10.44;73.75;100709.20;1778238;80;20248;-72
2024/03/21 13:15:07;;;;;;;;;;;;;;;10.38;73.91;100701.69;1748106;81;20119;-68
2024/03/21 13:17:35;;;;;;;;;;;;;;;10.30;73.78;100696.83;1761131;79;20138;-69
2024/03/21 13:20:03;;;;;;;;;;;;;;;10.25;73.88;100705.74;1769616;79;20178;-68
2024/03/21 13:22:29;;;;;;;;;;;;;;;10.18;74.95;100702.98;1767587;79;20132;-72
2024/03/21 13:24:56;;;;;;;;;;;;;;;10.09;74.81;100704.67;1745848;82;20142;-74
2024/03/21 13:27:28;;;;;;;;;;;;;;;10.00;74.80;100702.02;1778362;79;20360;-72
2024/03/21 13:29:52;;;;;;;;;;;;;;;9.93;75.41;100698.86;1778488;79;20118;-72
2024/03/21 13:32:19;;;;;;;;;;;;;;;9.88;75.54;100698.20;1771212;79;20098;-74
2024/03/21 13:34:48;;;;;;;;;;;;;;;9.86;75.80;100700.02;1774609;79;20136;-72
2024/03/21 13:37:16;;;;;;;;;;;;;;;9.84;75.61;100697.94;1716023;82;20228;-75
2024/03/21 13:39:42;;;;;;;;;;;;;;;9.83;75.86;100691.05;1754090;81;20361;-72
2024/03/21 13:42:10;;;;;;;;;;;;;;;9.81;76.32;100693.32;1772243;79;20114;-71
2024/03/21 13:44:37;;;;;;;;;;;;;;;9.79;76.37;100700.34;1748228;80;20120;-74
2024/03/21 13:47:04;;;;;;;;;;;;;;;9.76;75.46;100692.67;1760647;81;20134;-71
2024/03/21 13:54:36;;;;;;;;;;;;;;;9.70;75.51;100688.56;1754949;80;20093;-71
2024/03/21 13:57:10;;;;;;;;;;;;;;;9.69;75.62;100686.88;1750725;81;20258;-71
2024/03/21 13:59:33;;;;;;;;;;;;;;;9.70;75.33;100680.77;1754162;81;20107;-71
2024/03/21 14:01:59;;;;;;;;;;;;;;;9.72;74.78;100676.80;1761078;81;20410;-71
2024/03/21 14:04:25;;;;;;;;;;;;;;;9.73;74.16;100681.94;1762817;81;20187;-71
2024/03/21 14:06:51;;;;;;;;;;;;;;;9.73;73.79;100680.64;1740607;81;20131;-68
2024/03/21 14:09:18;;;;;;;;;;;;;;;9.75;73.99;100672.31;1754393;80;20473;-71
2024/03/21 14:11:44;;;;;;;;;;;;;;;9.77;74.36;100676.16;1754749;81;20139;-73
2024/03/21 14:14:10;;;;;;;;;;;;;;;9.79;74.20;100675.63;1748989;81;20099;-73
2024/03/21 14:16:37;;;;;;;;;;;;;;;9.81;74.12;100675.11;1739901;81;20397;-72
2024/03/21 14:19:03;;;;;;;;;;;;;;;9.81;73.99;100678.56;1754462;81;20436;-73
2024/03/21 14:21:30;;;;;;;;;;;;;;;9.81;74.11;100671.22;1757780;81;20095;-72
2024/03/21 14:23:56;;;;;;;;;;;;;;;9.80;73.95;100668.22;1758848;81;20186;-72
2024/03/21 14:26:23;;;;;;;;;;;;;;;9.81;74.72;100671.22;1757625;81;20108;-71
2024/03/21 14:28:54;;;;;;;;;;;;;;;9.80;74.73;100670.83;1737744;81;20160;-71
2024/03/21 14:31:21;;;;;;;;;;;;;;;9.80;74.80;100668.22;1746951;81;20129;-69
2024/03/21 14:33:47;;;;;;;;;;;;;;;9.77;74.26;100664.45;1756384;81;20387;-70
2024/03/21 14:36:16;;;;;;;;;;;;;;;9.74;74.83;100665.42;1754222;81;20515;-72
2024/03/21 14:38:42;;;;;;;;;;;;;;;9.72;74.69;100669.84;1741663;81;20111;-70
2024/03/21 14:41:09;;;;;;;;;;;;;;;9.70;74.60;100665.16;1751678;81;20083;-70
2024/03/21 14:43:37;;;;;;;;;;;;;;;9.68;74.61;100669.12;1753617;81;20178;-73
2024/03/21 14:46:03;;;;;;;;;;;;;;;9.67;74.79;100667.89;1750846;81;20131;-70
2024/03/21 14:48:30;;;;;;;;;;;;;;;9.64;75.41;100653.72;1752783;81;20225;-71
2024/03/21 14:50:58;;;;;;;;;;;;;;;9.64;75.99;100657.62;1744332;81;20224;-72
2024/03/21 14:53:25;;;;;;;;;;;;;;;9.61;76.82;100662.48;1746073;81;20146;-72
2024/03/21 14:55:52;;;;;;;;;;;;;;;9.61;76.90;100660.34;1744917;81;20111;-69
2024/03/21 14:58:18;;;;;;;;;;;;;;;9.59;77.60;100659.59;1756157;81;20111;-70
